Time;durP1;ratioP1;P1;durP2;ratioP2;P2;SDS_P1;SDS_P2;PMS_P1;PMS_P2;Temp;Humidity;BMP_temperature;BMP_pressure;BME280_temperature;BME280_humidity;BME280_pressure;Samples;Min_cycle;Max_cycle;Signal;HPM_P1;HPM_P2
2023/03/28 00:00:48;;;;;;;9.75;1.25;;;1.50;99.90;;;;;;5037741;28;20390;-68
2023/03/28 00:03:17;;;;;;;4.15;1.45;;;1.50;99.90;;;;;;5031422;28;20037;-68
2023/03/28 00:05:47;;;;;;;5.47;1.20;;;1.50;99.90;;;;;;5025609;28;20086;-69
2023/03/28 00:08:14;;;;;;;10.23;1.00;;;1.40;99.90;;;;;;5019060;28;20030;-69
2023/03/28 00:10:39;;;;;;;4.50;1.27;;;1.50;99.90;;;;;;5034115;28;20036;-68
2023/03/28 00:13:05;;;;;;;3.85;1.63;;;1.40;99.90;;;;;;5049684;28;20492;-68
2023/03/28 00:15:31;;;;;;;5.72;1.00;;;1.40;99.90;;;;;;5032674;28;20046;-68
2023/03/28 00:17:59;;;;;;;2.75;0.82;;;1.40;99.90;;;;;;5016475;28;22078;-68
2023/03/28 00:20:26;;;;;;;7.00;1.10;;;1.40;99.90;;;;;;5029990;28;20040;-67
2023/03/28 00:22:53;;;;;;;6.95;1.20;;;1.30;99.90;;;;;;5031447;28;20507;-68
2023/03/28 00:25:19;;;;;;;3.42;0.95;;;1.30;99.90;;;;;;5046858;28;20053;-69
2023/03/28 00:27:45;;;;;;;2.92;0.90;;;1.30;99.90;;;;;;5017039;28;20131;-68
2023/03/28 00:30:11;;;;;;;9.73;1.05;;;1.30;99.90;;;;;;5032149;28;20038;-69
2023/03/28 00:32:36;;;;;;;5.85;1.17;;;1.30;99.90;;;;;;5034718;28;20083;-69
2023/03/28 00:35:03;;;;;;;3.13;0.90;;;1.20;99.90;;;;;;5050916;28;20128;-69
2023/03/28 00:37:28;;;;;;;3.47;0.93;;;1.30;99.90;;;;;;5044198;28;20072;-68
2023/03/28 00:39:54;;;;;;;5.43;0.80;;;1.30;99.90;;;;;;5030157;28;20124;-68
2023/03/28 00:42:22;;;;;;;3.22;0.65;;;1.40;99.90;;;;;;5042064;28;20052;-68
2023/03/28 00:44:55;;;;;;;3.47;1.00;;;1.40;99.90;;;;;;5045401;28;20049;-68
2023/03/28 00:47:26;;;;;;;3.72;1.35;;;1.40;99.90;;;;;;5052477;28;20037;-69
2023/03/28 00:50:21;;;;;;;7.68;1.13;;;1.40;99.90;;;;;;5061831;28;20074;-68
2023/03/28 00:53:03;;;;;;;8.10;1.65;;;1.40;99.90;;;;;;5035729;28;20448;-68
2023/03/28 00:55:37;;;;;;;4.65;1.35;;;1.50;99.90;;;;;;5032980;28;20037;-68
2023/03/28 00:58:08;;;;;;;4.78;1.00;;;1.40;99.90;;;;;;5032971;28;20037;-68
2023/03/28 01:00:34;;;;;;;7.47;0.98;;;1.50;99.90;;;;;;5031026;28;20077;-68
2023/03/28 01:03:01;;;;;;;4.28;1.02;;;1.50;99.90;;;;;;5033167;28;20040;-68
2023/03/28 01:05:30;;;;;;;4.63;1.10;;;1.50;99.90;;;;;;5050770;28;20063;-69
2023/03/28 01:08:14;;;;;;;5.63;0.75;;;1.40;99.90;;;;;;5026388;28;20037;-69
2023/03/28 01:10:40;;;;;;;4.15;0.88;;;1.40;99.90;;;;;;5031851;28;20447;-69
2023/03/28 01:13:06;;;;;;;3.80;1.00;;;1.40;99.90;;;;;;5037731;28;20073;-67
2023/03/28 01:15:32;;;;;;;6.97;1.52;;;1.40;99.90;;;;;;5021888;28;20156;-69
2023/03/28 01:18:01;;;;;;;3.83;1.63;;;1.40;99.90;;;;;;5038227;28;20370;-68
2023/03/28 01:20:45;;;;;;;4.00;1.20;;;1.40;99.90;;;;;;5034181;28;20408;-69
2023/03/28 01:23:41;;;;;;;4.85;1.00;;;1.40;99.90;;;;;;5029740;28;20037;-69
2023/03/28 01:26:44;;;;;;;6.57;1.08;;;1.30;99.90;;;;;;5042209;28;20045;-69
2023/03/28 01:29:22;;;;;;;5.18;0.98;;;1.20;99.90;;;;;;5026585;28;21173;-69
2023/03/28 01:32:02;;;;;;;4.55;0.90;;;1.20;99.90;;;;;;5038764;28;20045;-68
2023/03/28 01:34:28;;;;;;;3.75;1.05;;;1.20;99.90;;;;;;5033783;28;20575;-68
2023/03/28 01:37:22;;;;;;;3.55;1.02;;;1.10;99.90;;;;;;5044655;28;20135;-68
2023/03/28 01:39:54;;;;;;;3.47;0.93;;;1.10;99.90;;;;;;5034427;28;20057;-69
2023/03/28 01:42:31;;;;;;;2.63;1.25;;;1.10;99.90;;;;;;5045230;28;20104;-68
2023/03/28 01:45:17;;;;;;;5.72;0.90;;;1.10;99.90;;;;;;5038877;28;20045;-70
2023/03/28 01:48:15;;;;;;;5.82;1.20;;;1.10;99.90;;;;;;5051902;28;20041;-68
2023/03/28 01:50:48;;;;;;;3.05;1.02;;;1.00;99.90;;;;;;5040989;28;20033;-69
2023/03/28 01:53:50;;;;;;;3.50;1.05;;;1.00;99.90;;;;;;5038368;28;20053;-67
2023/03/28 01:56:47;;;;;;;2.92;0.90;;;1.00;99.90;;;;;;5023453;28;20045;-67
2023/03/28 01:59:37;;;;;;;3.55;1.15;;;0.90;99.90;;;;;;5038469;28;20127;-68
2023/03/28 02:02:11;;;;;;;4.88;1.48;;;0.90;99.90;;;;;;5016521;28;20048;-69
2023/03/28 02:04:38;;;;;;;2.70;0.93;;;0.90;99.90;;;;;;5036391;28;20033;-67
2023/03/28 02:07:07;;;;;;;5.50;0.90;;;1.00;99.90;;;;;;5046104;28;20388;-67
2023/03/28 02:09:36;;;;;;;5.40;1.15;;;0.90;99.90;;;;;;5055183;28;20699;-67
2023/03/28 02:12:08;;;;;;;4.35;1.30;;;0.90;99.90;;;;;;5038035;28;20075;-68
2023/03/28 02:14:40;;;;;;;3.60;0.90;;;0.90;99.90;;;;;;5025854;28;20136;-68
2023/03/28 02:17:14;;;;;;;6.55;0.88;;;0.90;99.90;;;;;;5051594;28;20038;-67
2023/03/28 02:20:07;;;;;;;7.68;1.35;;;1.00;99.90;;;;;;5043060;28;20045;-67
2023/03/28 02:22:45;;;;;;;3.13;0.85;;;1.00;99.90;;;;;;5039597;28;20049;-68
2023/03/28 02:25:10;;;;;;;2.22;0.75;;;1.00;99.90;;;;;;5041351;28;20077;-67
2023/03/28 02:27:38;;;;;;;7.05;1.25;;;1.10;99.90;;;;;;5037003;28;20053;-68
2023/03/28 02:30:06;;;;;;;10.13;1.17;;;1.10;99.90;;;;;;5025626;28;20041;-68
2023/03/28 02:32:32;;;;;;;5.88;1.23;;;1.10;99.90;;;;;;5042680;28;20068;-68
2023/03/28 02:34:59;;;;;;;7.57;0.88;;;1.10;99.90;;;;;;5031827;28;20052;-68
2023/03/28 02:37:50;;;;;;;6.45;1.15;;;1.10;99.90;;;;;;5026408;28;20033;-68
2023/03/28 02:40:29;;;;;;;;;;;1.10;99.90;;;;;;5032821;28;20053;-68
2023/03/28 02:43:01;;;;;;;5.05;0.85;;;1.10;99.90;;;;;;5047040;28;20395;-68
2023/03/28 02:45:39;;;;;;;6.65;0.95;;;1.00;99.90;;;;;;5020873;28;20048;-69
2023/03/28 02:48:13;;;;;;;8.05;1.42;;;1.00;99.90;;;;;;5057148;28;20034;-68
2023/03/28 02:50:52;;;;;;;2.53;0.70;;;1.00;99.90;;;;;;5026275;28;20040;-68
2023/03/28 02:53:38;;;;;;;4.35;1.02;;;0.90;99.90;;;;;;5045702;28;20037;-67
2023/03/28 02:56:11;;;;;;;3.08;1.00;;;1.00;99.90;;;;;;5018806;28;20034;-68
2023/03/28 02:58:58;;;;;;;8.20;1.75;;;1.00;99.90;;;;;;5049703;28;20040;-68
2023/03/28 03:01:27;;;;;;;4.18;1.23;;;1.00;99.90;;;;;;5055405;28;20060;-67
2023/03/28 03:03:54;;;;;;;6.05;1.00;;;1.00;99.90;;;;;;5046907;28;20409;-68
2023/03/28 03:06:19;;;;;;;3.92;1.10;;;1.00;99.90;;;;;;5031563;28;20042;-67
2023/03/28 03:08:45;;;;;;;5.65;1.33;;;1.00;99.90;;;;;;5046985;28;20055;-68
2023/03/28 03:11:10;;;;;;;13.95;1.25;;;1.00;99.90;;;;;;5031015;28;20037;-68
2023/03/28 03:13:36;;;;;;;3.40;1.02;;;1.00;99.90;;;;;;5030646;28;20049;-68
2023/03/28 03:16:02;;;;;;;3.03;1.35;;;0.90;99.90;;;;;;5035355;28;20049;-68
2023/03/28 03:18:28;;;;;;;3.85;1.42;;;0.90;99.90;;;;;;5012869;28;20124;-67
2023/03/28 03:20:53;;;;;;;4.32;0.82;;;1.00;99.90;;;;;;5025443;28;20496;-68
2023/03/28 03:23:19;;;;;;;4.70;0.93;;;1.00;99.90;;;;;;5021805;28;20045;-69
2023/03/28 03:25:45;;;;;;;4.50;0.77;;;0.90;99.90;;;;;;5039936;28;20044;-67
2023/03/28 03:28:11;;;;;;;7.65;1.38;;;1.00;99.90;;;;;;5045898;28;20518;-67
2023/03/28 03:30:37;;;;;;;3.30;1.10;;;1.00;99.90;;;;;;5034517;28;20033;-68
2023/03/28 03:33:04;;;;;;;2.33;0.90;;;0.90;99.90;;;;;;5031560;28;20171;-68
2023/03/28 03:35:33;;;;;;;3.22;1.05;;;0.90;99.90;;;;;;5043483;28;20037;-68
2023/03/28 03:37:59;;;;;;;6.32;1.13;;;0.90;99.90;;;;;;5046110;28;20045;-67
2023/03/28 03:40:25;;;;;;;5.35;0.95;;;1.00;99.90;;;;;;5043800;28;20049;-68
2023/03/28 03:42:51;;;;;;;10.35;1.55;;;0.90;99.90;;;;;;5047213;28;20049;-67
2023/03/28 03:45:17;;;;;;;3.25;1.00;;;1.00;99.90;;;;;;5038065;28;20049;-69
2023/03/28 03:47:43;;;;;;;7.63;1.10;;;1.00;99.90;;;;;;5020381;28;20042;-68
2023/03/28 03:50:09;;;;;;;3.33;0.80;;;1.00;99.90;;;;;;5036782;28;20380;-68
2023/03/28 03:52:35;;;;;;;0.80;0.77;;;1.00;99.90;;;;;;5038777;28;20033;-67
2023/03/28 03:55:01;;;;;;;4.95;1.98;;;1.00;99.90;;;;;;5039609;28;20394;-68
2023/03/28 03:57:27;;;;;;;8.23;1.23;;;1.00;99.90;;;;;;5037433;28;20043;-68
2023/03/28 03:59:52;;;;;;;4.65;1.05;;;1.00;99.90;;;;;;5026348;28;20053;-68
2023/03/28 04:02:18;;;;;;;2.35;1.10;;;0.90;99.90;;;;;;5031092;28;20044;-68
2023/03/28 04:04:44;;;;;;;3.80;1.00;;;1.00;99.90;;;;;;5012995;28;20102;-68
2023/03/28 04:07:10;;;;;;;6.18;0.98;;;0.90;99.90;;;;;;5038298;28;20091;-68
2023/03/28 04:09:36;;;;;;;5.15;1.15;;;1.00;99.90;;;;;;5046334;28;20045;-68
2023/03/28 04:12:03;;;;;;;1.55;0.90;;;0.90;99.90;;;;;;5033217;28;20132;-68
2023/03/28 04:14:28;;;;;;;1.40;0.75;;;0.90;99.90;;;;;;5035293;28;20040;-68
2023/03/28 04:16:54;;;;;;;3.08;0.90;;;0.90;99.90;;;;;;5032044;28;20052;-67
2023/03/28 04:19:19;;;;;;;8.10;0.95;;;0.90;99.90;;;;;;5043921;28;20037;-67
2023/03/28 04:21:47;;;;;;;6.03;1.33;;;0.90;99.90;;;;;;5029822;28;20041;-67
2023/03/28 04:24:19;;;;;;;4.32;1.00;;;0.90;99.90;;;;;;5030681;28;20051;-68
2023/03/28 04:26:48;;;;;;;3.55;0.93;;;0.90;99.90;;;;;;5030640;28;20099;-68
2023/03/28 04:29:17;;;;;;;3.15;1.13;;;0.90;99.90;;;;;;5028774;28;20480;-68
2023/03/28 04:31:48;;;;;;;3.63;1.17;;;0.90;99.90;;;;;;5039077;28;20037;-69
2023/03/28 04:34:18;;;;;;;6.30;1.27;;;0.90;99.90;;;;;;5016608;28;20033;-67
2023/03/28 04:36:44;;;;;;;;;;;0.90;99.90;;;;;;5030649;28;20141;-68
2023/03/28 04:39:10;;;;;;;1.98;0.85;;;0.80;99.90;;;;;;5015368;28;20004;-68
2023/03/28 04:41:35;;;;;;;4.00;0.98;;;0.80;99.90;;;;;;5056754;28;20067;-68
2023/03/28 04:44:01;;;;;;;2.95;1.20;;;0.80;99.90;;;;;;5027788;28;20742;-67
2023/03/28 04:46:29;;;;;;;7.18;1.00;;;0.80;99.90;;;;;;5039142;28;20083;-67
2023/03/28 04:48:55;;;;;;;4.35;0.98;;;0.80;99.90;;;;;;5038644;28;20045;-66
2023/03/28 04:51:21;;;;;;;5.95;2.42;;;0.70;99.90;;;;;;5036379;28;20532;-68
2023/03/28 04:53:46;;;;;;;5.95;1.10;;;0.70;99.90;;;;;;5042334;28;20041;-67
2023/03/28 04:56:12;;;;;;;7.70;1.20;;;0.70;99.90;;;;;;5034111;28;20042;-67
2023/03/28 04:58:40;;;;;;;7.70;0.95;;;0.70;99.90;;;;;;5034872;28;20078;-68
2023/03/28 05:01:09;;;;;;;7.05;1.42;;;0.70;99.90;;;;;;5046767;28;20079;-67
2023/03/28 05:03:35;;;;;;;3.50;0.93;;;0.70;99.90;;;;;;5032710;28;20485;-67
2023/03/28 05:06:01;;;;;;;2.05;0.88;;;0.70;99.90;;;;;;5045332;28;20385;-67
2023/03/28 05:08:27;;;;;;;6.15;1.25;;;0.70;99.90;;;;;;5039070;28;20033;-68
2023/03/28 05:10:54;;;;;;;5.28;1.27;;;0.60;99.90;;;;;;5032806;28;20124;-68
2023/03/28 05:13:20;;;;;;;2.35;0.70;;;0.70;99.90;;;;;;5053869;28;20041;-69
2023/03/28 05:15:47;;;;;;;3.28;1.17;;;0.60;99.90;;;;;;5037019;28;20041;-67
2023/03/28 05:18:13;;;;;;;5.57;1.25;;;0.60;99.90;;;;;;5009253;28;20050;-67
2023/03/28 05:20:38;;;;;;;2.38;1.10;;;0.70;99.90;;;;;;5022818;28;20041;-67
2023/03/28 05:23:07;;;;;;;6.32;1.17;;;0.70;99.90;;;;;;5039615;28;20865;-67
2023/03/28 05:25:33;;;;;;;5.30;1.83;;;0.70;99.90;;;;;;5031168;28;20049;-67
2023/03/28 05:28:00;;;;;;;6.13;1.02;;;0.70;99.90;;;;;;5029347;28;20037;-67
2023/03/28 05:30:26;;;;;;;9.75;1.75;;;0.70;99.90;;;;;;5025278;28;20537;-67
2023/03/28 05:32:51;;;;;;;7.18;1.38;;;0.70;99.90;;;;;;5026463;28;20140;-68
2023/03/28 05:35:17;;;;;;;6.60;1.40;;;0.70;99.90;;;;;;5033168;28;20040;-69
2023/03/28 05:37:43;;;;;;;2.60;1.27;;;0.70;99.90;;;;;;5036144;28;20500;-66
2023/03/28 05:40:10;;;;;;;5.80;1.10;;;0.70;99.90;;;;;;5024764;28;20474;-67
2023/03/28 05:42:37;;;;;;;3.72;0.90;;;0.70;99.90;;;;;;5037140;28;20041;-67
2023/03/28 05:45:05;;;;;;;3.63;1.25;;;0.80;99.90;;;;;;5030149;28;20041;-67
2023/03/28 05:47:30;;;;;;;2.90;1.05;;;0.80;99.90;;;;;;5037164;28;20120;-67
2023/03/28 05:49:56;;;;;;;7.07;1.17;;;0.80;99.90;;;;;;5029631;28;21421;-66
2023/03/28 05:52:22;;;;;;;5.00;1.50;;;0.90;99.90;;;;;;5040765;28;20650;-67
2023/03/28 05:54:47;;;;;;;4.25;1.10;;;0.90;99.90;;;;;;5029234;28;20140;-68
2023/03/28 05:57:13;;;;;;;5.22;1.98;;;0.90;99.90;;;;;;5029866;28;20051;-67
2023/03/28 05:59:42;;;;;;;2.65;1.00;;;0.90;99.90;;;;;;5025908;28;20045;-68
2023/03/28 06:02:13;;;;;;;5.65;1.20;;;1.00;99.90;;;;;;5047719;28;20068;-67
2023/03/28 06:04:39;;;;;;;5.55;1.38;;;1.00;99.90;;;;;;5031663;28;20049;-68
2023/03/28 06:07:05;;;;;;;5.47;1.15;;;1.00;99.90;;;;;;5033221;28;20069;-68
2023/03/28 06:09:31;;;;;;;4.80;0.90;;;1.10;99.90;;;;;;5039788;28;20034;-67
2023/03/28 06:11:57;;;;;;;6.15;1.40;;;1.10;99.90;;;;;;5046679;28;20469;-67
2023/03/28 06:14:23;;;;;;;4.47;1.20;;;1.20;99.90;;;;;;5050633;28;20433;-67
2023/03/28 06:16:48;;;;;;;4.10;0.98;;;1.30;99.90;;;;;;5031674;28;20049;-66
2023/03/28 06:19:14;;;;;;;5.90;1.10;;;1.40;99.90;;;;;;5027223;28;20396;-67
2023/03/28 06:21:40;;;;;;;3.67;0.73;;;1.60;99.90;;;;;;5049080;28;20029;-66
2023/03/28 06:24:05;;;;;;;7.32;1.23;;;1.70;99.90;;;;;;5029974;28;20041;-67
2023/03/28 06:26:31;;;;;;;2.88;1.00;;;1.90;99.90;;;;;;5042119;28;20039;-68
2023/03/28 06:28:56;;;;;;;2.15;1.00;;;2.10;99.90;;;;;;5033371;28;20041;-68
2023/03/28 06:31:22;;;;;;;2.60;0.90;;;2.30;99.90;;;;;;5037329;28;20050;-67
2023/03/28 06:33:49;;;;;;;1.83;0.90;;;2.50;99.90;;;;;;5037016;28;20568;-68
2023/03/28 06:36:15;;;;;;;4.30;0.93;;;2.80;99.90;;;;;;5047882;28;20045;-68
2023/03/28 06:38:40;;;;;;;6.68;1.08;;;3.00;99.90;;;;;;5049786;28;20047;-68
2023/03/28 06:41:06;;;;;;;5.32;1.30;;;3.20;99.90;;;;;;5046473;28;20037;-68
2023/03/28 06:43:31;;;;;;;5.60;1.38;;;3.40;99.90;;;;;;5025426;28;20136;-68
2023/03/28 06:45:57;;;;;;;6.13;1.38;;;3.60;99.90;;;;;;5038785;28;20040;-67
2023/03/28 06:48:29;;;;;;;4.65;1.00;;;3.80;99.90;;;;;;5049678;28;20028;-69
2023/03/28 06:50:55;;;;;;;2.45;0.73;;;3.90;99.90;;;;;;5037704;28;20041;-69
2023/03/28 06:53:21;;;;;;;4.57;1.23;;;4.00;99.90;;;;;;5049468;28;20033;-68
2023/03/28 06:55:48;;;;;;;5.40;0.85;;;4.20;99.90;;;;;;5051139;28;20037;-67
2023/03/28 06:58:14;;;;;;;4.65;0.80;;;4.30;99.90;;;;;;5045125;28;20033;-68
2023/03/28 07:00:40;;;;;;;5.32;1.27;;;4.50;99.90;;;;;;5041337;28;20386;-68
2023/03/28 07:03:05;;;;;;;4.18;0.80;;;4.80;99.90;;;;;;5040240;28;20127;-68
2023/03/28 07:05:31;;;;;;;4.43;1.10;;;5.10;99.90;;;;;;5044968;28;20087;-68
2023/03/28 07:07:56;;;;;;;5.22;0.90;;;5.40;99.90;;;;;;5034780;28;20048;-69
2023/03/28 07:10:22;;;;;;;3.33;0.95;;;5.40;99.90;;;;;;5023342;28;20120;-68
2023/03/28 07:12:47;;;;;;;3.35;0.80;;;5.80;99.90;;;;;;5048956;28;20037;-70
2023/03/28 07:15:13;;;;;;;2.42;0.90;;;5.80;99.90;;;;;;5044835;28;20044;-68
2023/03/28 07:17:39;;;;;;;5.90;1.23;;;5.90;99.90;;;;;;5042197;28;20037;-69
2023/03/28 07:20:05;;;;;;;5.38;0.85;;;6.10;99.90;;;;;;5032907;28;20041;-68
2023/03/28 07:22:31;;;;;;;3.05;0.80;;;6.30;99.90;;;;;;5040135;28;20041;-68
2023/03/28 07:24:56;;;;;;;5.43;0.90;;;6.40;99.90;;;;;;5034443;28;20044;-68
2023/03/28 07:27:22;;;;;;;3.55;1.10;;;6.50;99.90;;;;;;5033996;28;20051;-68
2023/03/28 07:29:48;;;;;;;5.07;0.85;;;6.50;99.90;;;;;;5024871;28;20041;-68
2023/03/28 07:32:14;;;;;;;1.95;0.80;;;6.60;99.90;;;;;;5048601;28;20037;-68
2023/03/28 07:34:40;;;;;;;5.30;0.80;;;7.00;99.90;;;;;;5023840;28;20075;-68
2023/03/28 07:37:07;;;;;;;2.72;0.73;;;7.00;99.90;;;;;;5044246;28;20041;-69
2023/03/28 07:39:33;;;;;;;4.68;0.82;;;7.10;99.90;;;;;;5028835;28;20087;-69
2023/03/28 07:41:59;;;;;;;4.85;0.80;;;7.20;99.90;;;;;;5045117;28;20076;-69
2023/03/28 07:44:25;;;;;;;4.30;1.10;;;7.40;99.90;;;;;;5037388;28;20124;-69
2023/03/28 07:46:51;;;;;;;2.47;0.70;;;7.50;99.90;;;;;;5037345;28;20120;-70
2023/03/28 07:49:19;;;;;;;5.45;1.10;;;7.40;99.90;;;;;;5041477;28;20095;-69
2023/03/28 07:51:46;;;;;;;4.57;0.50;;;7.30;99.90;;;;;;5045976;28;20115;-69
2023/03/28 07:54:16;;;;;;;2.25;0.43;;;7.50;99.90;;;;;;5039114;28;20045;-69
2023/03/28 07:56:43;;;;;;;2.40;0.70;;;7.20;99.90;;;;;;5049189;28;20652;-70
2023/03/28 07:59:09;;;;;;;4.53;0.70;;;7.40;99.90;;;;;;5040347;28;20069;-69
2023/03/28 08:01:34;;;;;;;4.47;0.73;;;7.50;99.90;;;;;;5039577;28;20515;-70
2023/03/28 08:04:00;;;;;;;4.25;0.60;;;7.40;99.90;;;;;;5038723;28;20384;-69
2023/03/28 08:06:26;;;;;;;3.65;0.73;;;7.50;99.90;;;;;;5053145;28;20047;-69
2023/03/28 08:08:52;;;;;;;5.13;0.70;;;7.70;99.90;;;;;;5049431;28;20494;-69
2023/03/28 08:11:17;;;;;;;3.42;0.57;;;7.60;99.90;;;;;;5056792;28;20037;-70
2023/03/28 08:13:43;;;;;;;5.10;0.75;;;7.90;99.90;;;;;;5033125;28;20114;-69
2023/03/28 08:16:09;;;;;;;3.53;0.80;;;8.00;99.90;;;;;;5050172;28;20041;-72
2023/03/28 08:18:34;;;;;;;4.25;0.68;;;7.80;91.20;;;;;;5045912;28;20052;-70
2023/03/28 08:21:01;;;;;;;1.00;0.57;;;7.80;98.70;;;;;;5053751;28;20041;-69
2023/03/28 08:23:27;;;;;;;5.45;1.10;;;7.60;95.20;;;;;;5044822;28;20095;-69
2023/03/28 08:26:04;;;;;;;2.67;0.93;;;7.30;98.50;;;;;;5027303;28;20042;-69
2023/03/28 08:28:35;;;;;;;1.73;0.93;;;7.20;90.40;;;;;;5048851;28;20370;-70
2023/03/28 08:31:01;;;;;;;;;;;7.20;92.90;;;;;;5027755;28;20045;-70
2023/03/28 08:33:28;;;;;;;1.88;0.63;;;7.60;93.10;;;;;;5043606;28;20033;-71
2023/03/28 08:35:55;;;;;;;4.05;0.70;;;7.60;91.20;;;;;;5041874;28;20042;-68
2023/03/28 08:38:21;;;;;;;4.03;0.77;;;7.70;93.80;;;;;;5007388;28;20033;-71
2023/03/28 08:41:20;;;;;;;1.60;0.60;;;7.90;96.00;;;;;;5033789;28;20041;-69
2023/03/28 08:44:03;;;;;;;2.58;0.57;;;7.90;88.90;;;;;;5019993;28;20126;-69
2023/03/28 08:46:30;;;;;;;1.70;0.50;;;7.80;90.10;;;;;;5056392;28;20109;-70
2023/03/28 08:48:58;;;;;;;1.80;0.50;;;7.80;92.20;;;;;;5033023;28;20064;-70
2023/03/28 08:51:34;;;;;;;2.03;0.60;;;7.90;93.00;;;;;;5034358;28;20048;-70
2023/03/28 08:54:11;;;;;;;2.15;0.70;;;8.00;92.20;;;;;;5033012;28;20056;-71
2023/03/28 08:56:44;;;;;;;2.67;0.60;;;8.10;91.50;;;;;;5050679;28;20049;-72
2023/03/28 08:59:16;;;;;;;3.88;1.23;;;8.20;91.40;;;;;;5029995;28;20045;-73
2023/03/28 09:01:42;;;;;;;4.60;0.70;;;8.10;88.70;;;;;;5033240;28;20057;-71
2023/03/28 09:04:39;;;;;;;3.22;1.17;;;8.10;91.00;;;;;;5032222;28;20037;-70
2023/03/28 09:07:46;;;;;;;1.77;0.80;;;8.00;77.10;;;;;;5043488;28;20041;-70
2023/03/28 09:10:26;;;;;;;2.17;0.98;;;7.70;77.30;;;;;;5031485;28;20119;-69
2023/03/28 09:13:27;;;;;;;4.07;0.82;;;7.60;80.00;;;;;;5041389;28;20124;-69
2023/03/28 09:16:01;;;;;;;;;;;7.60;84.90;;;;;;5028524;28;20124;-72
2023/03/28 09:18:42;;;;;;;3.83;0.60;;;7.80;81.80;;;;;;5048521;28;19916;-71
2023/03/28 09:21:22;;;;;;;3.15;0.60;;;7.90;81.40;;;;;;5033068;28;20037;-69
2023/03/28 09:24:19;;;;;;;4.63;1.15;;;8.00;84.60;;;;;;5048179;28;20075;-69
2023/03/28 09:26:51;;;;;;;1.90;0.75;;;7.90;76.10;;;;;;5033974;28;20045;-71
2023/03/28 09:29:22;;;;;;;4.50;0.68;;;7.90;79.50;;;;;;5029148;28;20048;-69
2023/03/28 09:31:50;;;;;;;1.35;0.80;;;7.80;82.90;;;;;;5030968;28;20036;-68
2023/03/28 09:34:39;;;;;;;1.88;0.55;;;7.60;80.50;;;;;;5055034;28;20132;-70
2023/03/28 09:37:37;;;;;;;2.88;0.80;;;7.40;75.90;;;;;;5031913;28;20041;-69
2023/03/28 09:40:16;;;;;;;2.33;0.70;;;7.50;73.20;;;;;;5028461;28;20060;-71
2023/03/28 09:43:14;;;;;;;1.40;0.50;;;7.70;68.50;;;;;;5033907;28;20044;-69
2023/03/28 09:45:57;;;;;;;4.93;0.68;;;8.10;64.70;;;;;;5029283;28;20052;-71
2023/03/28 09:48:32;;;;;;;3.35;0.38;;;8.30;64.20;;;;;;5027575;28;20037;-71
2023/03/28 09:51:00;;;;;;;1.15;0.60;;;8.10;62.70;;;;;;5035397;28;20041;-70
2023/03/28 09:53:35;;;;;;;0.45;0.30;;;8.30;62.40;;;;;;5021984;28;20126;-69
2023/03/28 09:56:28;;;;;;;0.90;0.50;;;8.50;61.90;;;;;;5049173;28;20120;-68
2023/03/28 09:59:03;;;;;;;1.27;0.60;;;8.50;57.70;;;;;;5031259;28;20837;-70
2023/03/28 10:01:42;;;;;;;2.78;0.50;;;8.50;61.60;;;;;;5062537;28;20053;-69
2023/03/28 10:04:12;;;;;;;2.42;0.77;;;8.40;63.30;;;;;;5041145;28;20047;-70
2023/03/28 10:06:39;;;;;;;2.60;0.57;;;8.50;61.70;;;;;;5050829;28;20036;-68
2023/03/28 10:09:20;;;;;;;2.15;0.68;;;8.60;60.40;;;;;;5035028;28;20481;-71
2023/03/28 10:11:58;;;;;;;2.58;0.50;;;8.30;55.50;;;;;;5025577;28;20548;-70
2023/03/28 10:14:35;;;;;;;2.38;0.93;;;8.40;56.80;;;;;;5057506;28;20049;-71
2023/03/28 10:17:20;;;;;;;1.35;0.30;;;8.30;54.20;;;;;;5051971;28;20488;-70
2023/03/28 10:19:47;;;;;;;1.75;0.60;;;8.40;56.80;;;;;;5037052;28;20484;-69
2023/03/28 10:22:31;;;;;;;2.97;1.00;;;8.80;59.00;;;;;;5033612;28;20409;-68
2023/03/28 10:24:57;;;;;;;2.05;0.80;;;9.00;55.00;;;;;;5047691;28;20045;-68
2023/03/28 10:27:32;;;;;;;3.05;0.70;;;9.00;55.20;;;;;;5057583;28;20062;-68
2023/03/28 10:30:10;;;;;;;2.40;0.68;;;9.00;52.50;;;;;;5062937;28;20517;-68
2023/03/28 10:32:36;;;;;;;1.38;0.60;;;9.00;56.30;;;;;;5047166;28;20052;-68
2023/03/28 10:35:22;;;;;;;2.15;0.70;;;8.80;54.10;;;;;;5041824;28;20385;-68
2023/03/28 10:37:48;;;;;;;2.33;0.55;;;8.90;55.10;;;;;;5045597;28;20091;-70
2023/03/28 10:40:17;;;;;;;1.25;0.60;;;9.10;53.60;;;;;;5040961;28;20417;-70
2023/03/28 10:42:44;;;;;;;1.30;0.40;;;9.10;54.50;;;;;;5036927;28;20106;-66
2023/03/28 10:45:33;;;;;;;4.13;0.80;;;9.00;57.40;;;;;;5032546;28;20146;-67
2023/03/28 10:48:03;;;;;;;3.08;0.55;;;8.40;50.80;;;;;;5043877;28;20408;-69
2023/03/28 10:50:40;;;;;;;0.93;0.63;;;8.20;56.80;;;;;;5027576;28;20095;-68
2023/03/28 10:53:27;;;;;;;0.80;0.52;;;8.40;55.00;;;;;;5031027;28;20072;-68
2023/03/28 10:56:09;;;;;;;1.20;0.55;;;8.20;52.70;;;;;;5030936;28;20051;-68
2023/03/28 10:58:41;;;;;;;1.88;0.88;;;8.20;52.60;;;;;;5052977;28;20550;-69
2023/03/28 11:01:18;;;;;;;1.27;0.70;;;8.40;53.80;;;;;;5029273;28;20060;-67
2023/03/28 11:04:09;;;;;;;1.27;0.50;;;8.50;54.30;;;;;;5015753;28;20049;-68
2023/03/28 11:07:10;;;;;;;1.75;0.50;;;8.60;51.00;;;;;;5031132;28;20041;-68
2023/03/28 11:09:45;;;;;;;1.33;0.60;;;8.60;53.90;;;;;;5029895;28;20056;-68
2023/03/28 11:12:30;;;;;;;2.42;0.77;;;8.70;51.90;;;;;;5014532;28;20116;-68
2023/03/28 11:15:15;;;;;;;0.52;0.38;;;8.80;53.90;;;;;;5043566;28;20087;-68
2023/03/28 11:17:47;;;;;;;0.57;0.38;;;9.00;54.20;;;;;;5046612;28;20041;-69
2023/03/28 11:20:35;;;;;;;1.55;0.70;;;9.00;56.80;;;;;;5053896;28;20049;-68
2023/03/28 11:23:20;;;;;;;3.75;0.70;;;8.90;54.20;;;;;;5023367;28;20055;-69
2023/03/28 11:26:08;;;;;;;1.10;0.70;;;9.00;53.90;;;;;;5045776;28;20637;-68
2023/03/28 11:28:58;;;;;;;2.25;0.60;;;9.10;50.80;;;;;;5032820;28;20504;-68
2023/03/28 11:31:41;;;;;;;1.27;0.70;;;9.00;50.30;;;;;;5031158;28;20052;-67
2023/03/28 11:34:22;;;;;;;0.90;0.65;;;8.70;49.20;;;;;;5046038;28;20047;-70
2023/03/28 11:37:06;;;;;;;2.70;0.80;;;9.10;54.80;;;;;;5038514;28;20052;-70
2023/03/28 11:39:44;;;;;;;1.67;0.90;;;9.40;54.30;;;;;;5027715;28;20117;-68
2023/03/28 11:42:19;;;;;;;1.10;0.80;;;9.20;55.50;;;;;;5037962;28;20078;-68
2023/03/28 11:44:54;;;;;;;2.92;0.75;;;9.30;52.10;;;;;;5026650;28;20049;-68
2023/03/28 11:47:32;;;;;;;6.22;1.65;;;9.10;51.30;;;;;;5030444;28;20037;-68
2023/03/28 11:50:15;;;;;;;1.27;0.70;;;9.30;54.70;;;;;;5056164;28;20444;-67
2023/03/28 11:52:57;;;;;;;1.15;0.80;;;9.10;50.40;;;;;;5031466;28;20073;-70
2023/03/28 11:55:28;;;;;;;3.38;0.82;;;9.40;52.80;;;;;;5033210;28;20049;-67
2023/03/28 11:58:15;;;;;;;3.00;0.70;;;9.00;49.40;;;;;;5033939;28;20644;-68
2023/03/28 12:00:47;;;;;;;1.50;0.60;;;9.50;53.10;;;;;;5039180;28;20132;-68
2023/03/28 12:03:18;;;;;;;3.00;0.90;;;9.40;47.90;;;;;;5043904;28;20099;-67
2023/03/28 12:05:53;;;;;;;2.22;0.82;;;9.40;52.60;;;;;;5037406;28;20037;-68
2023/03/28 12:08:31;;;;;;;4.60;0.80;;;9.30;51.00;;;;;;5045328;28;20041;-68
2023/03/28 12:11:03;;;;;;;1.40;0.80;;;9.00;50.40;;;;;;5043628;28;20132;-69
2023/03/28 12:13:38;;;;;;;1.45;0.90;;;9.20;54.60;;;;;;5029492;28;20065;-68
2023/03/28 12:16:09;;;;;;;4.22;1.13;;;9.30;55.00;;;;;;5053119;28;20120;-68
2023/03/28 12:18:45;;;;;;;4.28;0.93;;;9.20;54.10;;;;;;5062147;28;20543;-70
2023/03/28 12:21:32;;;;;;;4.05;1.00;;;9.40;51.50;;;;;;5046691;28;20385;-67
2023/03/28 12:24:13;;;;;;;1.90;0.80;;;9.20;51.30;;;;;;5017447;28;20049;-69
2023/03/28 12:27:05;;;;;;;3.17;1.02;;;9.30;53.70;;;;;;5031381;28;20025;-67
2023/03/28 12:29:52;;;;;;;3.15;1.05;;;9.60;53.20;;;;;;5026084;28;20367;-69
2023/03/28 12:32:25;;;;;;;2.00;1.02;;;9.50;52.70;;;;;;5035233;28;20052;-68
2023/03/28 12:35:11;;;;;;;2.50;1.00;;;9.40;48.70;;;;;;5043331;28;20085;-69
2023/03/28 12:37:58;;;;;;;3.95;1.15;;;9.30;50.10;;;;;;5037751;28;20064;-67
2023/03/28 12:40:51;;;;;;;3.53;0.93;;;9.40;52.50;;;;;;5029835;28;20136;-70
2023/03/28 12:43:20;;;;;;;1.05;0.95;;;9.40;48.60;;;;;;5046253;28;20048;-68
2023/03/28 12:45:51;;;;;;;2.50;0.80;;;9.60;48.90;;;;;;5026946;28;20071;-70
2023/03/28 12:48:29;;;;;;;2.13;0.70;;;9.50;46.40;;;;;;5029359;28;20124;-70
2023/03/28 12:51:04;;;;;;;2.15;0.90;;;9.70;47.10;;;;;;5032354;28;20041;-67
2023/03/28 12:53:31;;;;;;;1.33;0.90;;;9.80;49.80;;;;;;5050498;28;20041;-71
2023/03/28 12:55:57;;;;;;;2.65;0.80;;;9.90;48.00;;;;;;5036882;28;20037;-66
2023/03/28 12:58:28;;;;;;;2.45;0.90;;;9.80;48.50;;;;;;5036893;28;20033;-69
2023/03/28 13:00:56;;;;;;;1.80;0.82;;;10.00;47.80;;;;;;5030539;28;20150;-70
2023/03/28 13:03:56;;;;;;;2.22;1.00;;;10.30;46.70;;;;;;5032952;28;20056;-68
2023/03/28 13:06:47;;;;;;;1.92;1.00;;;10.40;45.30;;;;;;5033090;28;20077;-68
2023/03/28 13:09:35;;;;;;;1.77;0.80;;;10.90;48.20;;;;;;5033354;28;20099;-68
2023/03/28 13:12:20;;;;;;;2.95;1.00;;;10.50;46.60;;;;;;5033460;28;20159;-69
2023/03/28 13:15:12;;;;;;;6.22;0.93;;;10.80;49.10;;;;;;5023629;28;20049;-67
2023/03/28 13:17:44;;;;;;;1.90;0.65;;;10.20;45.40;;;;;;5031382;28;20045;-70
2023/03/28 13:20:16;;;;;;;4.43;1.20;;;10.40;47.10;;;;;;5030760;28;20037;-69
2023/03/28 13:22:53;;;;;;;2.92;1.02;;;10.40;49.50;;;;;;5035395;28;20487;-67
2023/03/28 13:25:24;;;;;;;6.50;1.50;;;10.40;47.40;;;;;;5031926;28;20034;-66